Time,TemperatureF,DewpointF,PressureIn,WindDirection,WindDirectionDegrees,WindSpeedMPH,WindSpeedGustMPH,Humidity,HourlyPrecipIn,Conditions,Clouds,dailyrainin,SolarRadiationWatts/m^2,SoftwareType,DateUTC
2013-09-25 10:30:00,68.9,53.5,29.85,East,90,3.6,3.6,58,0.00,,---,0.00,0.00,VWS V14.01,2013-09-25 15:30:00,
2013-09-25 10:31:00,68.9,53.5,29.85,ESE,112,2.7,3.6,58,0.00,,---,0.00,0.00,VWS V14.01,2013-09-25 15:31:00,
2013-09-25 10:32:00,68.9,53.5,29.85,ESE,112,2.7,2.7,58,0.00,,---,0.00,0.00,VWS V14.01,2013-09-25 15:32:00,
2013-09-25 10:37:00,68.9,53.5,29.85,ESE,112,2.7,2.7,58,0.00,,---,0.00,0.00,VWS V14.01,2013-09-25 15:37:00,
2013-09-25 10:39:00,69.4,53.1,29.88,ESE,112,4.3,5.4,56,0.00,,---,0.00,0.00,VWS V14.01,2013-09-25 15:39:00,
2013-09-25 10:45:00,69.8,53.4,29.88,ESE,112,4.3,4.3,56,0.00,,---,10.83,0.00,VWS V14.01,2013-09-25 15:45:00,
2013-09-25 10:50:00,70.2,53.3,29.88,SE,135,0.0,4.0,55,0.00,,---,10.83,0.00,VWS V14.01,2013-09-25 15:50:00,
2013-09-25 10:55:00,70.2,53.3,29.88,East,90,4.3,4.3,55,0.00,,---,10.83,0.00,VWS V14.01,2013-09-25 15:55:00,
2013-09-25 11:01:00,70.9,53.4,29.85,ESE,112,3.8,3.8,54,0.00,,---,10.83,0.00,VWS V14.01,2013-09-25 16:01:00,
2013-09-25 11:08:00,71.6,53.6,0.00,ENE,68,4.7,4.7,53,0.00,,---,10.83,0.00,VWS V14.01,2013-09-25 16:08:00,
2013-09-25 11:14:00,71.6,53.6,0.00,ENE,68,4.7,4.7,53,0.00,,---,10.83,0.00,VWS V14.01,2013-09-25 16:14:00,
2013-09-25 11:20:00,71.6,53.6,0.00,SE,135,3.8,4.7,53,0.00,,---,10.83,0.00,VWS V14.01,2013-09-25 16:20:00,
2013-09-25 11:26:00,73.0,53.9,29.85,East,90,2.0,2.0,51,0.00,,---,10.83,0.00,VWS V14.01,2013-09-25 16:26:00,
2013-09-25 11:31:00,73.4,53.7,29.85,East,90,2.0,2.0,50,0.00,,---,10.83,0.00,VWS V14.01,2013-09-25 16:31:00,
2013-09-25 11:37:00,73.4,53.7,29.85,ESE,112,6.0,6.0,50,0.00,,---,10.83,0.00,VWS V14.01,2013-09-25 16:37:00,
2013-09-25 11:42:00,74.1,53.2,29.85,SSE,158,3.1,6.3,48,0.00,,---,10.83,0.00,VWS V14.01,2013-09-25 16:42:00,
2013-09-25 11:47:00,74.5,53.0,29.85,ENE,68,3.4,3.4,47,0.00,,---,10.83,0.00,VWS V14.01,2013-09-25 16:47:00,
2013-09-25 11:52:00,74.8,52.1,29.85,ESE,112,4.3,4.3,45,0.00,,---,10.83,0.00,VWS V14.01,2013-09-25 16:52:00,
2013-09-25 11:58:00,75.2,51.8,29.85,ENE,68,4.7,4.7,44,0.00,,---,10.83,0.00,VWS V14.01,2013-09-25 16:58:00,
2013-09-25 12:04:00,75.2,51.8,29.85,East,90,5.8,5.8,44,0.00,,---,10.83,0.00,VWS V14.01,2013-09-25 17:04:00,
2013-09-25 12:09:00,75.9,52.5,29.85,SSE,158,3.8,3.8,44,0.00,,---,10.83,0.00,VWS V14.01,2013-09-25 17:09:00,
2013-09-25 12:14:00,76.3,51.5,29.85,ESE,112,2.7,3.4,42,0.00,,---,10.83,0.00,VWS V14.01,2013-09-25 17:14:00,
2013-09-25 12:20:00,76.5,51.0,29.85,SE,135,4.3,6.5,41,0.00,,---,10.83,0.00,VWS V14.01,2013-09-25 17:20:00,
2013-09-25 12:25:00,76.6,51.2,29.85,ENE,68,2.9,2.9,41,0.00,,---,10.83,0.00,VWS V14.01,2013-09-25 17:25:00,
2013-09-25 12:30:00,77.2,48.9,29.85,ESE,112,5.6,5.6,37,0.00,,---,10.83,0.00,VWS V14.01,2013-09-25 17:30:00,
2013-09-25 12:36:00,77.2,48.2,29.85,SE,135,7.8,7.8,36,0.00,,---,10.83,0.00,VWS V14.01,2013-09-25 17:36:00,
2013-09-25 12:42:00,77.2,49.6,29.85,SSE,158,1.6,4.3,38,0.00,,---,10.83,0.00,VWS V14.01,2013-09-25 17:42:00,
2013-09-25 12:48:00,77.5,48.5,29.85,SSE,158,5.4,5.6,36,0.00,,---,10.83,0.00,VWS V14.01,2013-09-25 17:48:00,
2013-09-25 12:54:00,77.7,47.9,29.82,ESE,112,4.3,5.6,35,0.00,,---,10.83,0.00,VWS V14.01,2013-09-25 17:54:00,
2013-09-25 12:59:00,77.7,47.9,29.82,ESE,112,6.5,6.5,35,0.00,,---,10.83,0.00,VWS V14.01,2013-09-25 17:59:00,
2013-09-25 13:05:00,77.7,47.9,29.82,ESE,112,4.3,6.0,35,0.00,,---,10.83,0.00,VWS V14.01,2013-09-25 18:05:00,
2013-09-25 13:10:00,77.7,47.9,29.82,SSE,158,7.4,7.4,35,0.00,,---,10.83,0.00,VWS V14.01,2013-09-25 18:10:00,
2013-09-25 13:15:00,78.4,46.2,29.82,ESE,112,5.4,5.8,32,0.00,,---,10.83,0.00,VWS V14.01,2013-09-25 18:15:00,
2013-09-25 13:21:00,78.4,47.0,29.82,East,90,3.6,4.9,33,0.00,,---,10.83,0.00,VWS V14.01,2013-09-25 18:21:00,
2013-09-25 13:27:00,78.8,45.6,29.82,SE,135,3.4,3.4,31,0.00,,---,10.83,0.00,VWS V14.01,2013-09-25 18:27:00,
2013-09-25 13:33:00,79.0,45.8,29.82,ESE,112,3.1,3.1,31,0.00,,---,10.83,0.00,VWS V14.01,2013-09-25 18:33:00,
2013-09-25 13:38:00,79.3,45.2,29.82,NE,45,4.7,4.7,30,0.00,,---,10.83,0.00,VWS V14.01,2013-09-25 18:38:00,
2013-09-25 13:44:00,80.1,46.7,29.82,ENE,68,2.5,4.9,31,0.00,,---,10.83,0.00,VWS V14.01,2013-09-25 18:44:00,
2013-09-25 13:49:00,80.4,46.2,29.82,SE,135,5.8,5.8,30,0.00,,---,10.83,0.00,VWS V14.01,2013-09-25 18:49:00,
2013-09-25 13:55:00,80.2,46.0,29.82,East,90,4.0,4.5,30,0.00,,---,10.83,0.00,VWS V14.01,2013-09-25 18:55:00,
2013-09-25 14:00:00,80.2,46.0,29.82,ENE,68,3.4,3.6,30,0.00,,---,10.83,0.00,VWS V14.01,2013-09-25 19:00:00,
2013-09-25 14:05:00,80.4,45.3,29.82,East,90,6.5,6.5,29,0.00,,---,10.83,0.00,VWS V14.01,2013-09-25 19:05:00,
2013-09-25 14:10:00,80.4,43.4,29.82,SE,135,2.5,4.0,27,0.00,,---,10.83,0.00,VWS V14.01,2013-09-25 19:10:00,
2013-09-25 14:16:00,80.8,41.7,29.82,ESE,112,6.3,7.8,25,0.00,,---,10.83,0.00,VWS V14.01,2013-09-25 19:16:00,
2013-09-25 14:21:00,80.6,40.5,29.82,ESE,112,6.3,7.6,24,0.00,,---,10.83,0.00,VWS V14.01,2013-09-25 19:21:00,
2013-09-25 14:26:00,80.6,39.4,29.82,SE,135,5.8,7.6,23,0.00,,---,10.83,0.00,VWS V14.01,2013-09-25 19:26:00,
2013-09-25 14:32:00,80.6,40.5,29.82,ESE,112,8.5,8.5,24,0.00,,---,10.83,0.00,VWS V14.01,2013-09-25 19:32:00,
2013-09-25 14:37:00,80.6,40.5,29.82,ESE,112,7.8,7.8,24,0.00,,---,10.83,0.00,VWS V14.01,2013-09-25 19:37:00,
2013-09-25 14:43:00,81.0,40.8,29.82,East,90,2.0,2.0,24,0.00,,---,10.83,0.00,VWS V14.01,2013-09-25 19:43:00,
2013-09-25 14:49:00,81.3,41.1,29.82,NE,45,2.9,2.9,24,0.00,,---,10.83,0.00,VWS V14.01,2013-09-25 19:49:00,
2013-09-25 14:55:00,81.1,39.9,29.82,SE,135,3.8,3.8,23,0.00,,---,10.83,0.00,VWS V14.01,2013-09-25 19:55:00,
2013-09-25 15:00:00,81.3,38.9,29.82,SSE,158,6.3,6.3,22,0.00,,---,10.83,0.00,VWS V14.01,2013-09-25 20:00:00,
2013-09-25 15:06:00,81.9,39.3,29.82,SSE,158,3.6,6.3,22,0.00,,---,10.83,0.00,VWS V14.01,2013-09-25 20:06:00,
2013-09-25 15:11:00,81.7,39.2,29.82,SSW,202,3.6,3.6,22,0.00,,---,10.83,0.00,VWS V14.01,2013-09-25 20:11:00,
2013-09-25 15:17:00,81.9,39.3,29.82,SSW,202,5.8,5.8,22,0.00,,---,10.83,0.00,VWS V14.01,2013-09-25 20:17:00,
2013-09-25 15:22:00,81.9,39.3,29.79,SE,135,5.6,5.6,22,0.00,,---,10.83,0.00,VWS V14.01,2013-09-25 20:22:00,
2013-09-25 15:27:00,81.7,38.0,29.79,ESE,112,6.7,6.7,21,0.00,,---,10.83,0.00,VWS V14.01,2013-09-25 20:27:00,
2013-09-25 15:32:00,81.7,38.0,29.79,ESE,112,9.4,9.4,21,0.00,,---,10.83,0.00,VWS V14.01,2013-09-25 20:32:00,
2013-09-25 15:37:00,81.5,37.8,29.79,SSE,158,4.0,5.8,21,0.00,,---,10.83,0.00,VWS V14.01,2013-09-25 20:37:00,
2013-09-25 15:43:00,81.7,38.0,29.79,SSE,158,6.0,6.0,21,0.00,,---,10.83,0.00,VWS V14.01,2013-09-25 20:43:00,
2013-09-25 15:49:00,81.7,38.0,29.79,SSE,158,6.0,6.0,21,0.00,,---,10.83,0.00,VWS V14.01,2013-09-25 20:49:00,
2013-09-25 15:54:00,81.5,36.6,29.79,SSE,158,4.9,5.4,20,0.00,,---,10.83,0.00,VWS V14.01,2013-09-25 20:54:00,
2013-09-25 16:00:00,81.7,36.8,29.79,SE,135,8.5,8.5,20,0.00,,---,10.83,0.00,VWS V14.01,2013-09-25 21:00:00,
2013-09-25 16:05:00,81.5,36.6,29.79,SE,135,3.6,6.5,20,0.00,,---,10.83,0.00,VWS V14.01,2013-09-25 21:05:00,
2013-09-25 16:10:00,81.7,36.8,29.79,SSE,158,5.6,6.7,20,0.00,,---,10.83,0.00,VWS V14.01,2013-09-25 21:10:00,
2013-09-25 16:16:00,81.5,36.6,29.79,SE,135,8.5,8.5,20,0.00,,---,10.83,0.00,VWS V14.01,2013-09-25 21:16:00,
2013-09-25 16:21:00,81.5,36.6,29.79,SSE,158,4.9,4.9,20,0.00,,---,10.83,0.00,VWS V14.01,2013-09-25 21:21:00,
2013-09-25 16:27:00,81.5,36.6,29.79,SE,135,4.9,8.7,20,0.00,,---,10.83,0.00,VWS V14.01,2013-09-25 21:27:00,
2013-09-25 16:32:00,81.3,36.5,29.79,SE,135,3.8,9.4,20,0.00,,---,10.83,0.00,VWS V14.01,2013-09-25 21:32:00,
2013-09-25 16:37:00,81.3,36.5,29.79,SSE,158,2.9,3.6,20,0.00,,---,10.83,0.00,VWS V14.01,2013-09-25 21:37:00,
2013-09-25 16:43:00,81.5,36.6,29.79,East,90,6.0,7.2,20,0.00,,---,10.83,0.00,VWS V14.01,2013-09-25 21:43:00,
2013-09-25 16:48:00,81.1,36.3,29.79,SSE,158,5.8,8.5,20,0.00,,---,10.83,0.00,VWS V14.01,2013-09-25 21:48:00,
2013-09-25 16:54:00,81.1,36.3,29.79,South,180,6.3,8.5,20,0.00,,---,10.83,0.00,VWS V14.01,2013-09-25 21:54:00,
2013-09-25 16:59:00,81.0,36.2,29.79,SE,135,4.3,7.8,20,0.00,,---,10.83,0.00,VWS V14.01,2013-09-25 21:59:00,
2013-09-25 17:05:00,80.6,35.9,29.79,SSE,158,12.5,12.5,20,0.00,,---,10.83,0.00,VWS V14.01,2013-09-25 22:05:00,
2013-09-25 17:10:00,80.4,37.0,29.79,SE,135,4.0,8.1,21,0.00,,---,10.83,0.00,VWS V14.01,2013-09-25 22:10:00,
2013-09-25 17:15:00,80.1,36.7,29.79,South,180,6.5,7.8,21,0.00,,---,10.83,0.00,VWS V14.01,2013-09-25 22:15:00,
2013-09-25 17:20:00,79.9,36.5,29.79,SSE,158,7.2,7.2,21,0.00,,---,10.83,0.00,VWS V14.01,2013-09-25 22:20:00,
2013-09-25 17:26:00,79.9,36.5,29.79,SSE,158,7.6,7.6,21,0.00,,---,10.83,0.00,VWS V14.01,2013-09-25 22:26:00,
2013-09-25 17:32:00,79.5,36.2,29.79,SE,135,4.3,10.5,21,0.00,,---,10.83,0.00,VWS V14.01,2013-09-25 22:32:00,
2013-09-25 17:37:00,79.3,36.0,29.79,ESE,112,10.7,10.7,21,0.00,,---,10.83,0.00,VWS V14.01,2013-09-25 22:37:00,
2013-09-25 17:43:00,78.8,35.6,29.79,SSE,158,4.5,6.5,21,0.00,,---,10.83,0.00,VWS V14.01,2013-09-25 22:43:00,
2013-09-25 17:48:00,78.8,35.6,29.79,South,180,6.0,6.3,21,0.00,,---,10.83,0.00,VWS V14.01,2013-09-25 22:48:00,
2013-09-25 17:53:00,78.6,36.6,29.79,SE,135,4.3,4.3,22,0.00,,---,10.83,0.00,VWS V14.01,2013-09-25 22:53:00,
2013-09-25 17:59:00,78.6,36.6,29.79,SSE,158,10.1,10.1,22,0.00,,---,10.83,0.00,VWS V14.01,2013-09-25 22:59:00,